sensor_id;sensor_type;location;lat;lon;timestamp;temperature;humidity
2300;DHT22;1158;48.750;9.078;2024-03-17T00:00:28;3.20;99.90
2300;DHT22;1158;48.750;9.078;2024-03-17T00:02:55;3.20;99.90
2300;DHT22;1158;48.750;9.078;2024-03-17T00:05:22;3.10;99.90
2300;DHT22;1158;48.750;9.078;2024-03-17T00:07:49;3.10;99.90
2300;DHT22;1158;48.750;9.078;2024-03-17T00:10:15;3.10;99.90
2300;DHT22;1158;48.750;9.078;2024-03-17T00:12:42;3.10;99.90
2300;DHT22;1158;48.750;9.078;2024-03-17T00:15:08;3.10;99.90
2300;DHT22;1158;48.750;9.078;2024-03-17T00:17:36;3.10;99.90
2300;DHT22;1158;48.750;9.078;2024-03-17T00:20:02;3.00;99.90
2300;DHT22;1158;48.750;9.078;2024-03-17T00:22:31;2.90;99.90
2300;DHT22;1158;48.750;9.078;2024-03-17T00:25:01;2.90;99.90
2300;DHT22;1158;48.750;9.078;2024-03-17T00:27:27;2.90;99.90
2300;DHT22;1158;48.750;9.078;2024-03-17T00:29:53;2.90;99.90
2300;DHT22;1158;48.750;9.078;2024-03-17T00:32:20;2.90;99.90
2300;DHT22;1158;48.750;9.078;2024-03-17T00:34:46;2.80;99.90
2300;DHT22;1158;48.750;9.078;2024-03-17T00:37:12;2.80;99.90
2300;DHT22;1158;48.750;9.078;2024-03-17T00:39:39;2.80;99.90
2300;DHT22;1158;48.750;9.078;2024-03-17T00:42:06;2.80;99.90
2300;DHT22;1158;48.750;9.078;2024-03-17T00:44:33;2.70;99.90
2300;DHT22;1158;48.750;9.078;2024-03-17T00:46:59;2.80;99.90
2300;DHT22;1158;48.750;9.078;2024-03-17T00:49:25;2.70;99.90
2300;DHT22;1158;48.750;9.078;2024-03-17T00:51:51;2.70;99.90
2300;DHT22;1158;48.750;9.078;2024-03-17T00:54:18;2.70;99.90
2300;DHT22;1158;48.750;9.078;2024-03-17T00:56:45;2.60;99.90
2300;DHT22;1158;48.750;9.078;2024-03-17T00:59:12;2.60;99.90
2300;DHT22;1158;48.750;9.078;2024-03-17T01:01:38;2.60;99.90
2300;DHT22;1158;48.750;9.078;2024-03-17T01:04:04;2.60;99.90
2300;DHT22;1158;48.750;9.078;2024-03-17T01:06:31;2.50;99.90
2300;DHT22;1158;48.750;9.078;2024-03-17T01:08:59;2.50;99.90
2300;DHT22;1158;48.750;9.078;2024-03-17T01:11:25;2.50;99.90
2300;DHT22;1158;48.750;9.078;2024-03-17T01:13:54;2.50;99.90
2300;DHT22;1158;48.750;9.078;2024-03-17T01:16:19;2.50;99.90
2300;DHT22;1158;48.750;9.078;2024-03-17T01:18:47;2.50;99.90
2300;DHT22;1158;48.750;9.078;2024-03-17T01:21:12;2.40;99.90
2300;DHT22;1158;48.750;9.078;2024-03-17T01:23:39;2.40;99.90
2300;DHT22;1158;48.750;9.078;2024-03-17T01:26:05;2.30;99.90
2300;DHT22;1158;48.750;9.078;2024-03-17T01:28:32;2.30;99.90
2300;DHT22;1158;48.750;9.078;2024-03-17T01:30:59;2.30;99.90
2300;DHT22;1158;48.750;9.078;2024-03-17T01:33:25;2.40;99.90
2300;DHT22;1158;48.750;9.078;2024-03-17T01:35:51;2.40;99.90
2300;DHT22;1158;48.750;9.078;2024-03-17T01:38:18;2.40;99.90
2300;DHT22;1158;48.750;9.078;2024-03-17T01:40:44;2.40;99.90
2300;DHT22;1158;48.750;9.078;2024-03-17T01:43:11;2.30;99.90
2300;DHT22;1158;48.750;9.078;2024-03-17T01:45:37;2.30;99.90
2300;DHT22;1158;48.750;9.078;2024-03-17T01:48:11;2.30;99.90
2300;DHT22;1158;48.750;9.078;2024-03-17T01:50:40;2.40;99.90
2300;DHT22;1158;48.750;9.078;2024-03-17T01:53:08;2.50;99.90
2300;DHT22;1158;48.750;9.078;2024-03-17T01:55:37;2.50;99.90
2300;DHT22;1158;48.750;9.078;2024-03-17T01:58:04;2.60;99.90
2300;DHT22;1158;48.750;9.078;2024-03-17T02:00:32;2.60;99.90
2300;DHT22;1158;48.750;9.078;2024-03-17T02:02:59;2.60;99.90
2300;DHT22;1158;48.750;9.078;2024-03-17T02:05:28;2.60;99.90
2300;DHT22;1158;48.750;9.078;2024-03-17T02:07:54;2.60;99.90
2300;DHT22;1158;48.750;9.078;2024-03-17T02:10:21;2.70;99.90
2300;DHT22;1158;48.750;9.078;2024-03-17T02:12:47;2.80;99.90
2300;DHT22;1158;48.750;9.078;2024-03-17T02:15:14;2.80;99.90
2300;DHT22;1158;48.750;9.078;2024-03-17T02:17:39;2.80;99.90
2300;DHT22;1158;48.750;9.078;2024-03-17T02:20:07;2.80;99.90
2300;DHT22;1158;48.750;9.078;2024-03-17T02:22:34;2.80;99.90
2300;DHT22;1158;48.750;9.078;2024-03-17T02:25:01;2.80;99.90
2300;DHT22;1158;48.750;9.078;2024-03-17T02:27:27;2.80;99.90
2300;DHT22;1158;48.750;9.078;2024-03-17T02:29:54;2.80;99.90
2300;DHT22;1158;48.750;9.078;2024-03-17T02:32:20;2.90;99.90
2300;DHT22;1158;48.750;9.078;2024-03-17T02:34:48;2.90;99.90
2300;DHT22;1158;48.750;9.078;2024-03-17T02:37:14;3.00;99.90
2300;DHT22;1158;48.750;9.078;2024-03-17T02:39:43;3.00;99.90
2300;DHT22;1158;48.750;9.078;2024-03-17T02:42:10;3.00;99.90
2300;DHT22;1158;48.750;9.078;2024-03-17T02:44:38;3.00;99.90
2300;DHT22;1158;48.750;9.078;2024-03-17T02:47:05;3.00;99.90
2300;DHT22;1158;48.750;9.078;2024-03-17T02:49:34;3.00;99.90
2300;DHT22;1158;48.750;9.078;2024-03-17T02:52:02;3.00;99.90
2300;DHT22;1158;48.750;9.078;2024-03-17T02:54:29;3.00;99.90
2300;DHT22;1158;48.750;9.078;2024-03-17T02:56:57;2.90;99.90
2300;DHT22;1158;48.750;9.078;2024-03-17T02:59:24;2.90;99.90
2300;DHT22;1158;48.750;9.078;2024-03-17T03:01:52;2.90;99.90
2300;DHT22;1158;48.750;9.078;2024-03-17T03:04:20;2.90;99.90
2300;DHT22;1158;48.750;9.078;2024-03-17T03:06:47;2.80;99.90
2300;DHT22;1158;48.750;9.078;2024-03-17T03:09:14;2.80;99.90
2300;DHT22;1158;48.750;9.078;2024-03-17T03:11:46;2.70;99.90
2300;DHT22;1158;48.750;9.078;2024-03-17T03:14:14;2.70;99.90
2300;DHT22;1158;48.750;9.078;2024-03-17T03:16:41;2.70;99.90
2300;DHT22;1158;48.750;9.078;2024-03-17T03:19:09;2.70;99.90
2300;DHT22;1158;48.750;9.078;2024-03-17T03:21:35;2.60;99.90
2300;DHT22;1158;48.750;9.078;2024-03-17T03:24:01;2.70;99.90
2300;DHT22;1158;48.750;9.078;2024-03-17T03:26:28;2.70;99.90
2300;DHT22;1158;48.750;9.078;2024-03-17T03:28:55;2.70;99.90
2300;DHT22;1158;48.750;9.078;2024-03-17T03:31:23;2.60;99.90
2300;DHT22;1158;48.750;9.078;2024-03-17T03:33:49;2.70;99.90
2300;DHT22;1158;48.750;9.078;2024-03-17T03:36:16;2.60;99.90
2300;DHT22;1158;48.750;9.078;2024-03-17T03:38:43;2.60;99.90
2300;DHT22;1158;48.750;9.078;2024-03-17T03:41:13;2.60;99.90
2300;DHT22;1158;48.750;9.078;2024-03-17T03:43:40;2.50;99.90
2300;DHT22;1158;48.750;9.078;2024-03-17T03:46:07;2.50;99.90
2300;DHT22;1158;48.750;9.078;2024-03-17T03:48:36;2.40;99.90
2300;DHT22;1158;48.750;9.078;2024-03-17T03:51:03;2.40;99.90
2300;DHT22;1158;48.750;9.078;2024-03-17T03:53:31;2.40;99.90
2300;DHT22;1158;48.750;9.078;2024-03-17T03:55:58;2.40;99.90
2300;DHT22;1158;48.750;9.078;2024-03-17T03:58:26;2.30;99.90
2300;DHT22;1158;48.750;9.078;2024-03-17T04:00:54;2.30;99.90
2300;DHT22;1158;48.750;9.078;2024-03-17T04:03:21;2.30;99.90
2300;DHT22;1158;48.750;9.078;2024-03-17T04:05:49;2.30;99.90
2300;DHT22;1158;48.750;9.078;2024-03-17T04:08:15;2.30;99.90
2300;DHT22;1158;48.750;9.078;2024-03-17T04:10:43;2.20;99.90
2300;DHT22;1158;48.750;9.078;2024-03-17T04:13:10;2.30;99.90
2300;DHT22;1158;48.750;9.078;2024-03-17T04:15:37;2.30;99.90
2300;DHT22;1158;48.750;9.078;2024-03-17T04:18:04;2.30;99.90
2300;DHT22;1158;48.750;9.078;2024-03-17T04:20:31;2.40;99.90
2300;DHT22;1158;48.750;9.078;2024-03-17T04:22:59;2.30;99.90
2300;DHT22;1158;48.750;9.078;2024-03-17T04:25:26;2.30;99.90
2300;DHT22;1158;48.750;9.078;2024-03-17T04:27:53;2.40;99.90
2300;DHT22;1158;48.750;9.078;2024-03-17T04:30:20;2.40;99.90
2300;DHT22;1158;48.750;9.078;2024-03-17T04:32:47;2.40;99.90
2300;DHT22;1158;48.750;9.078;2024-03-17T04:35:13;2.30;99.90
2300;DHT22;1158;48.750;9.078;2024-03-17T04:37:40;2.30;99.90
2300;DHT22;1158;48.750;9.078;2024-03-17T04:40:09;2.40;99.90
2300;DHT22;1158;48.750;9.078;2024-03-17T04:42:36;2.30;99.90
2300;DHT22;1158;48.750;9.078;2024-03-17T04:45:07;2.30;99.90
2300;DHT22;1158;48.750;9.078;2024-03-17T04:47:35;2.20;99.90
2300;DHT22;1158;48.750;9.078;2024-03-17T04:50:02;2.20;99.90
2300;DHT22;1158;48.750;9.078;2024-03-17T04:52:29;2.10;99.90
2300;DHT22;1158;48.750;9.078;2024-03-17T04:54:56;2.10;99.90
2300;DHT22;1158;48.750;9.078;2024-03-17T04:57:24;2.00;99.90
2300;DHT22;1158;48.750;9.078;2024-03-17T04:59:51;2.00;99.90
2300;DHT22;1158;48.750;9.078;2024-03-17T05:02:18;2.10;99.90
2300;DHT22;1158;48.750;9.078;2024-03-17T05:04:45;2.00;99.90
2300;DHT22;1158;48.750;9.078;2024-03-17T05:07:11;1.90;99.90
2300;DHT22;1158;48.750;9.078;2024-03-17T05:09:38;1.80;99.90
2300;DHT22;1158;48.750;9.078;2024-03-17T05:12:05;1.80;99.90
2300;DHT22;1158;48.750;9.078;2024-03-17T05:14:33;1.80;99.90
2300;DHT22;1158;48.750;9.078;2024-03-17T05:17:00;1.90;99.90
2300;DHT22;1158;48.750;9.078;2024-03-17T05:19:27;1.80;99.90
2300;DHT22;1158;48.750;9.078;2024-03-17T05:21:54;1.80;99.90
2300;DHT22;1158;48.750;9.078;2024-03-17T05:24:20;1.90;99.90
2300;DHT22;1158;48.750;9.078;2024-03-17T05:26:47;1.90;99.90
2300;DHT22;1158;48.750;9.078;2024-03-17T05:29:14;2.00;99.90
2300;DHT22;1158;48.750;9.078;2024-03-17T05:31:42;2.00;99.90
2300;DHT22;1158;48.750;9.078;2024-03-17T05:34:09;2.10;99.90
2300;DHT22;1158;48.750;9.078;2024-03-17T05:36:36;2.10;99.90
2300;DHT22;1158;48.750;9.078;2024-03-17T05:39:03;2.10;99.90
2300;DHT22;1158;48.750;9.078;2024-03-17T05:41:30;2.10;99.90
2300;DHT22;1158;48.750;9.078;2024-03-17T05:43:57;2.10;99.90
2300;DHT22;1158;48.750;9.078;2024-03-17T05:46:24;2.10;99.90
2300;DHT22;1158;48.750;9.078;2024-03-17T05:48:53;2.20;99.90
2300;DHT22;1158;48.750;9.078;2024-03-17T05:51:20;2.20;99.90
2300;DHT22;1158;48.750;9.078;2024-03-17T05:53:47;2.20;99.90
2300;DHT22;1158;48.750;9.078;2024-03-17T05:56:14;2.20;99.90
2300;DHT22;1158;48.750;9.078;2024-03-17T05:58:42;2.20;99.90
2300;DHT22;1158;48.750;9.078;2024-03-17T06:01:09;2.20;99.90
2300;DHT22;1158;48.750;9.078;2024-03-17T06:03:37;2.30;99.90
2300;DHT22;1158;48.750;9.078;2024-03-17T06:06:06;2.30;99.90
2300;DHT22;1158;48.750;9.078;2024-03-17T06:08:35;2.40;99.90
2300;DHT22;1158;48.750;9.078;2024-03-17T06:11:02;2.60;99.90
2300;DHT22;1158;48.750;9.078;2024-03-17T06:13:29;2.90;99.90
2300;DHT22;1158;48.750;9.078;2024-03-17T06:15:56;4.10;99.90
2300;DHT22;1158;48.750;9.078;2024-03-17T06:18:26;4.90;99.90
2300;DHT22;1158;48.750;9.078;2024-03-17T06:20:54;5.80;99.90
2300;DHT22;1158;48.750;9.078;2024-03-17T06:23:25;6.30;99.90
2300;DHT22;1158;48.750;9.078;2024-03-17T06:25:53;6.20;99.90
2300;DHT22;1158;48.750;9.078;2024-03-17T06:28:20;6.40;99.90
2300;DHT22;1158;48.750;9.078;2024-03-17T06:30:55;6.70;99.90
2300;DHT22;1158;48.750;9.078;2024-03-17T06:33:22;6.60;99.90
2300;DHT22;1158;48.750;9.078;2024-03-17T06:35:50;7.40;99.90
2300;DHT22;1158;48.750;9.078;2024-03-17T06:38:16;7.90;99.90
2300;DHT22;1158;48.750;9.078;2024-03-17T06:40:49;8.20;99.90
2300;DHT22;1158;48.750;9.078;2024-03-17T06:43:16;8.80;99.90
2300;DHT22;1158;48.750;9.078;2024-03-17T06:45:43;9.00;99.90
2300;DHT22;1158;48.750;9.078;2024-03-17T06:48:10;8.60;99.90
2300;DHT22;1158;48.750;9.078;2024-03-17T06:50:38;8.10;99.90
2300;DHT22;1158;48.750;9.078;2024-03-17T06:53:08;7.90;99.90
2300;DHT22;1158;48.750;9.078;2024-03-17T06:55:36;7.70;99.90
2300;DHT22;1158;48.750;9.078;2024-03-17T06:58:04;7.40;99.90
2300;DHT22;1158;48.750;9.078;2024-03-17T07:00:32;7.10;99.90
2300;DHT22;1158;48.750;9.078;2024-03-17T07:02:58;7.00;99.90
2300;DHT22;1158;48.750;9.078;2024-03-17T07:05:25;7.20;99.90
2300;DHT22;1158;48.750;9.078;2024-03-17T07:07:52;8.20;99.90
2300;DHT22;1158;48.750;9.078;2024-03-17T07:10:18;8.70;99.90
2300;DHT22;1158;48.750;9.078;2024-03-17T07:12:45;8.80;99.90
2300;DHT22;1158;48.750;9.078;2024-03-17T07:15:13;8.60;99.90
2300;DHT22;1158;48.750;9.078;2024-03-17T07:17:40;8.80;99.90
2300;DHT22;1158;48.750;9.078;2024-03-17T07:20:07;9.30;99.90
2300;DHT22;1158;48.750;9.078;2024-03-17T07:22:38;10.00;99.90
2300;DHT22;1158;48.750;9.078;2024-03-17T07:25:05;10.10;99.90
2300;DHT22;1158;48.750;9.078;2024-03-17T07:27:32;10.20;99.90
2300;DHT22;1158;48.750;9.078;2024-03-17T07:29:59;11.10;99.90
2300;DHT22;1158;48.750;9.078;2024-03-17T07:32:27;12.20;99.90
2300;DHT22;1158;48.750;9.078;2024-03-17T07:34:54;12.60;99.90
2300;DHT22;1158;48.750;9.078;2024-03-17T07:37:20;12.90;99.90
2300;DHT22;1158;48.750;9.078;2024-03-17T07:39:47;12.70;99.90
2300;DHT22;1158;48.750;9.078;2024-03-17T07:42:15;12.30;99.90
2300;DHT22;1158;48.750;9.078;2024-03-17T07:44:43;12.20;99.90
2300;DHT22;1158;48.750;9.078;2024-03-17T07:47:10;12.40;99.90
2300;DHT22;1158;48.750;9.078;2024-03-17T07:49:38;12.70;99.90
2300;DHT22;1158;48.750;9.078;2024-03-17T07:52:06;12.50;99.90
2300;DHT22;1158;48.750;9.078;2024-03-17T07:54:32;12.40;99.90
2300;DHT22;1158;48.750;9.078;2024-03-17T07:57:00;12.30;99.90
2300;DHT22;1158;48.750;9.078;2024-03-17T07:59:27;12.20;99.90
2300;DHT22;1158;48.750;9.078;2024-03-17T08:01:55;12.50;99.90
2300;DHT22;1158;48.750;9.078;2024-03-17T08:04:22;12.50;99.90
2300;DHT22;1158;48.750;9.078;2024-03-17T08:06:50;12.20;99.90
2300;DHT22;1158;48.750;9.078;2024-03-17T08:09:17;12.00;99.90
2300;DHT22;1158;48.750;9.078;2024-03-17T08:11:44;12.00;99.90
2300;DHT22;1158;48.750;9.078;2024-03-17T08:14:12;11.90;99.90
2300;DHT22;1158;48.750;9.078;2024-03-17T08:16:40;12.00;99.90
2300;DHT22;1158;48.750;9.078;2024-03-17T08:19:07;11.80;99.90
2300;DHT22;1158;48.750;9.078;2024-03-17T08:21:34;11.90;99.90
2300;DHT22;1158;48.750;9.078;2024-03-17T08:24:01;12.00;99.90
2300;DHT22;1158;48.750;9.078;2024-03-17T08:26:28;12.00;99.90
2300;DHT22;1158;48.750;9.078;2024-03-17T08:28:55;12.10;99.90
2300;DHT22;1158;48.750;9.078;2024-03-17T08:31:22;12.20;99.90
2300;DHT22;1158;48.750;9.078;2024-03-17T08:33:49;12.40;99.90
2300;DHT22;1158;48.750;9.078;2024-03-17T08:36:17;12.80;99.90
2300;DHT22;1158;48.750;9.078;2024-03-17T08:38:44;13.30;99.90
2300;DHT22;1158;48.750;9.078;2024-03-17T08:41:12;13.40;99.90
2300;DHT22;1158;48.750;9.078;2024-03-17T08:43:39;13.70;99.90
2300;DHT22;1158;48.750;9.078;2024-03-17T08:46:09;14.40;99.90
2300;DHT22;1158;48.750;9.078;2024-03-17T08:48:37;15.20;99.90
2300;DHT22;1158;48.750;9.078;2024-03-17T08:51:05;15.80;99.90
2300;DHT22;1158;48.750;9.078;2024-03-17T08:53:32;16.20;99.90
2300;DHT22;1158;48.750;9.078;2024-03-17T08:55:59;17.00;99.90
2300;DHT22;1158;48.750;9.078;2024-03-17T08:58:27;17.10;99.40
2300;DHT22;1158;48.750;9.078;2024-03-17T09:00:54;17.00;98.40
2300;DHT22;1158;48.750;9.078;2024-03-17T09:03:22;16.60;98.00
2300;DHT22;1158;48.750;9.078;2024-03-17T09:05:49;16.50;97.60
2300;DHT22;1158;48.750;9.078;2024-03-17T09:08:21;16.50;96.00
2300;DHT22;1158;48.750;9.078;2024-03-17T09:10:49;16.40;99.40
2300;DHT22;1158;48.750;9.078;2024-03-17T09:13:17;16.40;95.70
2300;DHT22;1158;48.750;9.078;2024-03-17T09:15:53;15.70;96.20
2300;DHT22;1158;48.750;9.078;2024-03-17T09:18:20;15.70;95.30
2300;DHT22;1158;48.750;9.078;2024-03-17T09:20:55;15.80;95.70
2300;DHT22;1158;48.750;9.078;2024-03-17T09:23:22;16.00;95.20
2300;DHT22;1158;48.750;9.078;2024-03-17T09:25:55;16.20;97.70
2300;DHT22;1158;48.750;9.078;2024-03-17T09:28:22;16.20;94.00
2300;DHT22;1158;48.750;9.078;2024-03-17T09:30:49;15.80;93.70
2300;DHT22;1158;48.750;9.078;2024-03-17T09:33:19;15.60;93.80
2300;DHT22;1158;48.750;9.078;2024-03-17T09:35:52;15.30;93.20
2300;DHT22;1158;48.750;9.078;2024-03-17T09:38:19;15.20;93.60
2300;DHT22;1158;48.750;9.078;2024-03-17T09:40:47;14.90;92.70
2300;DHT22;1158;48.750;9.078;2024-03-17T09:43:15;15.00;93.80
2300;DHT22;1158;48.750;9.078;2024-03-17T09:45:42;15.00;94.30
2300;DHT22;1158;48.750;9.078;2024-03-17T09:48:14;14.90;94.00
2300;DHT22;1158;48.750;9.078;2024-03-17T09:50:42;14.50;95.00
2300;DHT22;1158;48.750;9.078;2024-03-17T09:53:13;14.30;95.00
2300;DHT22;1158;48.750;9.078;2024-03-17T09:55:42;14.30;94.50
2300;DHT22;1158;48.750;9.078;2024-03-17T09:58:15;14.40;94.40
2300;DHT22;1158;48.750;9.078;2024-03-17T10:00:43;14.20;93.70
2300;DHT22;1158;48.750;9.078;2024-03-17T10:03:09;14.40;94.20
2300;DHT22;1158;48.750;9.078;2024-03-17T10:05:37;14.90;94.20
2300;DHT22;1158;48.750;9.078;2024-03-17T10:08:05;15.40;94.10
2300;DHT22;1158;48.750;9.078;2024-03-17T10:10:34;16.00;93.00
2300;DHT22;1158;48.750;9.078;2024-03-17T10:13:01;16.00;92.50
2300;DHT22;1158;48.750;9.078;2024-03-17T10:15:27;16.00;91.90
2300;DHT22;1158;48.750;9.078;2024-03-17T10:17:55;15.80;92.40
2300;DHT22;1158;48.750;9.078;2024-03-17T10:20:24;15.10;92.50
2300;DHT22;1158;48.750;9.078;2024-03-17T10:23:01;14.70;92.60
2300;DHT22;1158;48.750;9.078;2024-03-17T10:25:31;14.50;93.70
2300;DHT22;1158;48.750;9.078;2024-03-17T10:27:58;14.70;94.00
2300;DHT22;1158;48.750;9.078;2024-03-17T10:30:26;15.30;93.10
2300;DHT22;1158;48.750;9.078;2024-03-17T10:32:56;15.60;92.90
2300;DHT22;1158;48.750;9.078;2024-03-17T10:35:28;16.00;92.60
2300;DHT22;1158;48.750;9.078;2024-03-17T10:37:57;16.40;91.90
2300;DHT22;1158;48.750;9.078;2024-03-17T10:40:25;16.10;91.90
2300;DHT22;1158;48.750;9.078;2024-03-17T10:42:53;16.10;92.00
2300;DHT22;1158;48.750;9.078;2024-03-17T10:45:20;16.10;91.90
2300;DHT22;1158;48.750;9.078;2024-03-17T10:47:48;15.90;92.60
2300;DHT22;1158;48.750;9.078;2024-03-17T10:50:18;15.70;92.00
2300;DHT22;1158;48.750;9.078;2024-03-17T10:52:46;15.20;92.50
2300;DHT22;1158;48.750;9.078;2024-03-17T10:55:25;15.30;92.80
2300;DHT22;1158;48.750;9.078;2024-03-17T10:57:55;15.60;92.60
2300;DHT22;1158;48.750;9.078;2024-03-17T11:00:24;15.70;92.70
2300;DHT22;1158;48.750;9.078;2024-03-17T11:02:55;15.80;92.50
2300;DHT22;1158;48.750;9.078;2024-03-17T11:05:24;15.90;92.30
2300;DHT22;1158;48.750;9.078;2024-03-17T11:07:52;15.50;92.20
2300;DHT22;1158;48.750;9.078;2024-03-17T11:10:21;15.30;92.90
2300;DHT22;1158;48.750;9.078;2024-03-17T11:12:50;15.50;92.30
2300;DHT22;1158;48.750;9.078;2024-03-17T11:15:37;15.50;92.40
2300;DHT22;1158;48.750;9.078;2024-03-17T11:21:24;15.10;92.60
2300;DHT22;1158;48.750;9.078;2024-03-17T11:23:58;14.70;93.50
2300;DHT22;1158;48.750;9.078;2024-03-17T11:26:45;15.60;92.70
2300;DHT22;1158;48.750;9.078;2024-03-17T11:29:28;16.20;92.30
2300;DHT22;1158;48.750;9.078;2024-03-17T11:31:56;16.40;93.30
2300;DHT22;1158;48.750;9.078;2024-03-17T11:34:33;16.80;92.50
2300;DHT22;1158;48.750;9.078;2024-03-17T11:37:01;16.80;91.90
2300;DHT22;1158;48.750;9.078;2024-03-17T11:39:48;16.50;90.80
2300;DHT22;1158;48.750;9.078;2024-03-17T11:42:18;15.70;91.40
2300;DHT22;1158;48.750;9.078;2024-03-17T11:44:56;15.50;94.30
2300;DHT22;1158;48.750;9.078;2024-03-17T11:47:36;14.90;92.20
2300;DHT22;1158;48.750;9.078;2024-03-17T11:50:06;14.70;92.10
2300;DHT22;1158;48.750;9.078;2024-03-17T11:52:33;14.80;92.00
2300;DHT22;1158;48.750;9.078;2024-03-17T11:55:00;15.30;92.10
2300;DHT22;1158;48.750;9.078;2024-03-17T11:57:27;15.90;91.30
2300;DHT22;1158;48.750;9.078;2024-03-17T11:59:54;15.70;91.20
2300;DHT22;1158;48.750;9.078;2024-03-17T12:02:22;15.90;91.30
2300;DHT22;1158;48.750;9.078;2024-03-17T12:04:52;16.00;91.30
2300;DHT22;1158;48.750;9.078;2024-03-17T12:07:21;16.20;91.50
2300;DHT22;1158;48.750;9.078;2024-03-17T12:09:54;16.20;90.90
2300;DHT22;1158;48.750;9.078;2024-03-17T12:12:22;16.20;90.40
2300;DHT22;1158;48.750;9.078;2024-03-17T12:14:50;16.10;90.80
2300;DHT22;1158;48.750;9.078;2024-03-17T12:17:20;15.50;90.50
2300;DHT22;1158;48.750;9.078;2024-03-17T12:19:48;15.50;91.00
2300;DHT22;1158;48.750;9.078;2024-03-17T12:22:18;15.40;91.30
2300;DHT22;1158;48.750;9.078;2024-03-17T12:24:48;15.10;91.10
2300;DHT22;1158;48.750;9.078;2024-03-17T12:27:17;15.20;92.10
2300;DHT22;1158;48.750;9.078;2024-03-17T12:29:44;15.20;92.30
2300;DHT22;1158;48.750;9.078;2024-03-17T12:32:13;15.00;92.20
2300;DHT22;1158;48.750;9.078;2024-03-17T12:34:40;15.00;92.80
2300;DHT22;1158;48.750;9.078;2024-03-17T12:37:07;15.20;92.60
2300;DHT22;1158;48.750;9.078;2024-03-17T12:39:35;15.40;92.20
2300;DHT22;1158;48.750;9.078;2024-03-17T12:42:05;15.10;92.00
2300;DHT22;1158;48.750;9.078;2024-03-17T12:44:33;15.00;92.80
2300;DHT22;1158;48.750;9.078;2024-03-17T12:47:01;15.70;96.10
2300;DHT22;1158;48.750;9.078;2024-03-17T12:49:28;15.30;92.80
2300;DHT22;1158;48.750;9.078;2024-03-17T12:51:54;14.90;93.80
2300;DHT22;1158;48.750;9.078;2024-03-17T12:54:23;15.10;94.60
2300;DHT22;1158;48.750;9.078;2024-03-17T12:56:51;15.50;93.50
2300;DHT22;1158;48.750;9.078;2024-03-17T12:59:38;16.00;93.70
2300;DHT22;1158;48.750;9.078;2024-03-17T13:02:22;15.70;92.30
2300;DHT22;1158;48.750;9.078;2024-03-17T13:05:14;15.50;92.20
2300;DHT22;1158;48.750;9.078;2024-03-17T13:07:42;15.10;92.30
2300;DHT22;1158;48.750;9.078;2024-03-17T13:10:12;14.80;92.90
2300;DHT22;1158;48.750;9.078;2024-03-17T13:12:41;14.70;92.80
2300;DHT22;1158;48.750;9.078;2024-03-17T13:15:13;15.10;92.50
2300;DHT22;1158;48.750;9.078;2024-03-17T13:17:40;15.30;92.80
2300;DHT22;1158;48.750;9.078;2024-03-17T13:20:10;15.50;92.00
2300;DHT22;1158;48.750;9.078;2024-03-17T13:22:38;15.80;92.00
2300;DHT22;1158;48.750;9.078;2024-03-17T13:25:09;15.60;91.20
2300;DHT22;1158;48.750;9.078;2024-03-17T13:27:38;15.70;92.30
2300;DHT22;1158;48.750;9.078;2024-03-17T13:30:07;15.80;91.70
2300;DHT22;1158;48.750;9.078;2024-03-17T13:32:34;15.90;92.00
2300;DHT22;1158;48.750;9.078;2024-03-17T13:35:02;16.10;91.10
2300;DHT22;1158;48.750;9.078;2024-03-17T13:37:29;15.80;91.70
2300;DHT22;1158;48.750;9.078;2024-03-17T13:39:55;16.10;91.80
2300;DHT22;1158;48.750;9.078;2024-03-17T13:42:22;16.00;91.40
2300;DHT22;1158;48.750;9.078;2024-03-17T13:44:49;16.10;91.50
2300;DHT22;1158;48.750;9.078;2024-03-17T13:47:18;15.70;91.10
2300;DHT22;1158;48.750;9.078;2024-03-17T13:49:45;15.60;91.90
2300;DHT22;1158;48.750;9.078;2024-03-17T13:52:12;15.50;92.30
2300;DHT22;1158;48.750;9.078;2024-03-17T13:54:39;15.60;91.80
2300;DHT22;1158;48.750;9.078;2024-03-17T13:57:06;15.70;92.00
2300;DHT22;1158;48.750;9.078;2024-03-17T13:59:32;15.90;92.10
2300;DHT22;1158;48.750;9.078;2024-03-17T14:01:59;16.10;92.20
2300;DHT22;1158;48.750;9.078;2024-03-17T14:04:29;16.10;91.80
2300;DHT22;1158;48.750;9.078;2024-03-17T14:06:56;16.20;92.10
2300;DHT22;1158;48.750;9.078;2024-03-17T14:09:23;16.10;91.80
2300;DHT22;1158;48.750;9.078;2024-03-17T14:11:50;15.90;91.80
2300;DHT22;1158;48.750;9.078;2024-03-17T14:14:16;16.20;91.70
2300;DHT22;1158;48.750;9.078;2024-03-17T14:16:43;16.60;91.90
2300;DHT22;1158;48.750;9.078;2024-03-17T14:19:10;17.00;91.40
2300;DHT22;1158;48.750;9.078;2024-03-17T14:21:38;16.90;90.50
2300;DHT22;1158;48.750;9.078;2024-03-17T14:24:05;17.00;91.50
2300;DHT22;1158;48.750;9.078;2024-03-17T14:26:35;16.90;91.30
2300;DHT22;1158;48.750;9.078;2024-03-17T14:29:02;16.50;91.50
2300;DHT22;1158;48.750;9.078;2024-03-17T14:31:32;16.00;91.90
2300;DHT22;1158;48.750;9.078;2024-03-17T14:34:01;16.50;91.60
2300;DHT22;1158;48.750;9.078;2024-03-17T14:36:28;16.50;91.20
2300;DHT22;1158;48.750;9.078;2024-03-17T14:38:57;16.90;90.90
2300;DHT22;1158;48.750;9.078;2024-03-17T14:41:24;16.70;90.60
2300;DHT22;1158;48.750;9.078;2024-03-17T14:43:53;16.90;91.20
2300;DHT22;1158;48.750;9.078;2024-03-17T14:46:20;17.20;91.00
2300;DHT22;1158;48.750;9.078;2024-03-17T14:48:47;17.10;90.70
2300;DHT22;1158;48.750;9.078;2024-03-17T14:51:16;17.00;90.90
2300;DHT22;1158;48.750;9.078;2024-03-17T14:53:45;16.80;91.20
2300;DHT22;1158;48.750;9.078;2024-03-17T14:56:16;16.70;90.70
2300;DHT22;1158;48.750;9.078;2024-03-17T14:58:43;16.70;90.60
2300;DHT22;1158;48.750;9.078;2024-03-17T15:01:10;17.00;91.50
2300;DHT22;1158;48.750;9.078;2024-03-17T15:03:37;17.30;90.80
2300;DHT22;1158;48.750;9.078;2024-03-17T15:06:09;17.30;89.30
2300;DHT22;1158;48.750;9.078;2024-03-17T15:08:36;17.00;90.30
2300;DHT22;1158;48.750;9.078;2024-03-17T15:11:03;16.70;90.50
2300;DHT22;1158;48.750;9.078;2024-03-17T15:13:32;16.60;91.30
2300;DHT22;1158;48.750;9.078;2024-03-17T15:15:59;16.40;90.80
2300;DHT22;1158;48.750;9.078;2024-03-17T15:18:26;16.20;91.10
2300;DHT22;1158;48.750;9.078;2024-03-17T15:20:54;16.10;91.20
2300;DHT22;1158;48.750;9.078;2024-03-17T15:23:21;15.90;92.00
2300;DHT22;1158;48.750;9.078;2024-03-17T15:25:59;15.80;92.20
2300;DHT22;1158;48.750;9.078;2024-03-17T15:28:26;15.50;92.30
2300;DHT22;1158;48.750;9.078;2024-03-17T15:30:54;15.50;92.30
2300;DHT22;1158;48.750;9.078;2024-03-17T15:33:25;15.40;92.30
2300;DHT22;1158;48.750;9.078;2024-03-17T15:35:52;15.40;92.40
2300;DHT22;1158;48.750;9.078;2024-03-17T15:38:19;15.50;92.70
2300;DHT22;1158;48.750;9.078;2024-03-17T15:40:47;15.40;92.50
2300;DHT22;1158;48.750;9.078;2024-03-17T15:43:14;15.30;92.90
2300;DHT22;1158;48.750;9.078;2024-03-17T15:45:42;15.30;93.10
2300;DHT22;1158;48.750;9.078;2024-03-17T15:48:10;15.10;93.70
2300;DHT22;1158;48.750;9.078;2024-03-17T15:50:37;14.90;93.60
2300;DHT22;1158;48.750;9.078;2024-03-17T15:53:05;14.60;93.80
2300;DHT22;1158;48.750;9.078;2024-03-17T15:55:32;14.40;94.10
2300;DHT22;1158;48.750;9.078;2024-03-17T15:57:59;14.10;94.20
2300;DHT22;1158;48.750;9.078;2024-03-17T16:00:26;14.00;94.10
2300;DHT22;1158;48.750;9.078;2024-03-17T16:02:53;13.90;94.60
2300;DHT22;1158;48.750;9.078;2024-03-17T16:05:23;13.70;94.90
2300;DHT22;1158;48.750;9.078;2024-03-17T16:07:50;13.70;95.20
2300;DHT22;1158;48.750;9.078;2024-03-17T16:10:19;13.60;95.40
2300;DHT22;1158;48.750;9.078;2024-03-17T16:12:47;13.50;95.60
2300;DHT22;1158;48.750;9.078;2024-03-17T16:15:14;13.40;95.30
2300;DHT22;1158;48.750;9.078;2024-03-17T16:17:42;13.30;95.80